Tuesday, December 18, 2018, 12:18 PM EST
Back to Local

KBOS, Boston Logan International

Location: Boston, MA, United States Lat: 42.367
Local Time: 12:18 PM EST (17:18 GMT) Lon: -71.017
Time Zone: US/Eastern Elev: 19 ft

Show me the last for .
Show Decoded

2018-12-18 11:54 METAR KBOS 181654Z 32022G31KT 10SM CLR 00/M13 A2983 RMK AO2 PK WND 33034/1638
                 SLP101 T00001128 =
2018-12-18 10:54 METAR KBOS 181554Z 31022G31KT 10SM FEW090 FEW250 M01/M12 A2983 RMK AO2 PK WND
                 32036/1503 SLP100 T10111122 =
2018-12-18 09:54 METAR KBOS 181454Z 31019G35KT 10SM BKN095 BKN250 M02/M12 A2982 RMK AO2 PK WND
                 33035/1408 SLP097 T10171122 51030 =
2018-12-18 08:54 METAR KBOS 181354Z 31026G33KT 10SM FEW050 BKN080 BKN250 M03/M12 A2980 RMK AO2 PK
                 WND 32034/1325 SLP091 T10281122 =
2018-12-18 07:54 METAR KBOS 181254Z 31023G34KT 10SM FEW045 SCT070 BKN250 M03/M13 A2977 RMK AO2 PK
                 WND 31039/1239 SLP080 T10331128 =
2018-12-18 06:54 METAR KBOS 181154Z 30020G32KT 10SM FEW045 BKN095 BKN250 M03/M13 A2973 RMK AO2 PK
                 WND 31033/1124 SLP067 60002 70002 T10281128 10022 21033 51028 =
2018-12-18 05:54 METAR KBOS 181054Z 30020G35KT 10SM FEW050 BKN250 M03/M13 A2971 RMK AO2 PK WND
                 30037/0959 SLP061 T10331128 =
2018-12-18 04:54 METAR KBOS 180954Z 30026G36KT 10SM SCT060 OVC080 M03/M13 A2968 RMK AO2 PK WND
                 29039/0857 SLP049 T10331128 =
2018-12-18 03:54 METAR KBOS 180854Z 31025G35KT 10SM BKN055 BKN065 OVC090 M02/M12 A2965 RMK AO2 PK
                 WND 29037/0825 SLP039 60002 T10171117 52036 =
2018-12-18 02:54 METAR KBOS 180754Z 30023G32KT 10SM OVC100 00/M10 A2961 RMK AO2 PK WND 30037/0714
                 SLP026 T00001100 =
2018-12-18 01:54 METAR KBOS 180654Z 31018G34KT 10SM FEW049 SCT075 OVC110 01/M08 A2958 RMK AO2 PK
                 WND 32034/0647 SNE33 SLP017 P0002 T00111083 =
2018-12-18 01:35 METAR KBOS 180635Z 30019G25KT 9SM FEW011 BKN041 OVC110 01/M06 A2957 RMK AO2 PK
                 WND 32031/0617 SNE33 CIG 032 E P0002 T00111061 =
2018-12-18 01:27 METAR KBOS 180627Z 30016G22KT 2SM -SN FEW011 SCT022 OVC032 01/M03 A2957 RMK AO2
                 PK WND 32031/0617 CIG 027 E P0002 T00061028 =
2018-12-18 01:15 METAR KBOS 180615Z 32015G27KT 1 1/4SM R04R/6000VP6000FT -SN FEW011 BKN016 OVC033
                 01/M02 A2957 RMK AO2 PK WND 28028/0600 PRESRR P0001 T00111017 =
2018-12-18 01:06 METAR KBOS 180606Z 28016G28KT 2SM -SN SCT021 BKN034 OVC042 01/M02 A2955 RMK AO2
                 PK WND 28028/0600 P0000 T00111017 =
2018-12-18 01:01 METAR KBOS 180601Z 28019G30KT 1SM R04R/P6000FT -SN BKN016 BKN034 OVC042 02/M02
                 A2955 RMK AO2 PK WND 28028/0600 P0000 T00171017 =
2018-12-18 00:54 METAR KBOS 180554Z 29021G31KT 1 1/2SM -SN SCT019 BKN042 OVC090 02/M02 A2954 RMK
                 AO2 PK WND 27031/0550 VIS 1V5 RAB46E49SNB49 SLP004 P0000 60000 T00221022 10044
                 20022 55005 =
2018-12-17 23:54 METAR KBOS 180454Z 27015KT 10SM OVC075 04/M03 A2954 RMK AO2 SLP003 T00391028
                 400610022 =
2018-12-17 22:54 METAR KBOS 180354Z 28012G19KT 10SM OVC085 04/M02 A2956 RMK AO2 SLP008 T00391022
                 =
2018-12-17 21:54 METAR KBOS 180254Z 28014G21KT 10SM FEW055 BKN080 04/M02 A2956 RMK AO2 SLP009
                 T00391022 50000 =
2018-12-17 20:54 METAR KBOS 180154Z 27012G20KT 10SM FEW055 BKN080 04/M03 A2956 RMK AO2 SLP009
                 T00391028 =
2018-12-17 19:54 METAR KBOS 180054Z 29010KT 10SM FEW070 04/M03 A2956 RMK AO2 SLP010 T00391028 =
2018-12-17 18:54 METAR KBOS 172354Z 30014KT 10SM FEW070 04/M02 A2956 RMK AO2 SLP009 T00441022
                 10061 20044 53014 =
2018-12-17 17:54 METAR KBOS 172254Z 30013KT 10SM FEW039 OVC070 06/M01 A2954 RMK AO2 SLP002
                 T00611011 =
2018-12-17 16:54 METAR KBOS 172154Z 29013G19KT 10SM FEW027 BKN065 05/M01 A2953 RMK AO2 SLP998
                 T00501006 =
2018-12-17 15:54 METAR KBOS 172054Z 29015KT 10SM FEW027 BKN055 BKN200 06/M01 A2952 RMK AO2 SLP995
                 T00561006 56008 =
2018-12-17 14:54 METAR KBOS 171954Z 28010KT 10SM FEW025 SCT042 BKN200 06/00 A2952 RMK AO2 SLP995
                 T00560000 =
2018-12-17 14:20 METAR KBOS 171920Z 28011G23KT 10SM FEW024 OVC040 06/00 A2952 RMK AO2 T00560000 =
2018-12-17 13:54 METAR KBOS 171854Z 29016G22KT 10SM SCT017 BKN023 OVC035 06/01 A2953 RMK AO2
                 SLP998 T00560006 =
2018-12-17 13:19 METAR KBOS 171819Z 28009KT 10SM BKN019 BKN025 BKN035 06/01 A2954 RMK AO2
                 T00560011 =
2018-12-17 12:54 METAR KBOS 171754Z 30010KT 10SM BKN014 BKN027 05/02 A2954 RMK AO2 SLP004 60000
                 T00500017 10050 20022 56030 =

Support USWX by starting your Amazon purchase here.